Meteo Giornale » Osservazioni meteo Italia » Catania-Sigonella

ore: 22:55 - Osservazioni Meteo Catania-Sigonella
Lat. 37° 24' N Lon. 14° 55' E Alt. 22 metri s.l.m.

nuvoloso Europe/Rome

14 °C

Nuvoloso

Temp. 24 Ore

8 °C

16 °C

Nord

3.7 Km/h

Dew point 11 °C

Umidità 82 %

Visibilità  7 Km

Il sole sorge alle ore 06:29

Il sole tramonta alle ore 17:55

Data e Ora Cielo e Fenomeni T °C DP °C Um. % Pres. hPa Vis. km Vento km/h
Oggi h: 22:55 nuvoloso Nuvoloso 14 11 82 1028 7 N 3.7
Oggi h: 21:55 nuvoloso Nuvoloso 14 11 82 1028 7 N 3.7
Oggi h: 19:55 nuvoloso Nuvoloso 14 10 76 1027 7 N 5.5
Oggi h: 18:55 nuvoloso Nuvoloso 14 10 76 1027 6 E/NE 11.1
Oggi h: 17:55 molto_nuvoloso Molto Nuvoloso 15 10 72 1026 6 E/SE 9.3
Oggi h: 16:55 nuvoloso Nuvoloso 15 9 67 1026 6 E 16.7
Oggi h: 15:55 foschia Foschia 16 9 63 1026 5 E 20.3
Oggi h: 14:55 foschia Foschia 16 8 58 1026 4 E/NE 18.5
Oggi h: 13:55 foschia Foschia 16 8 58 1027 4 E 14.8
Oggi h: 11:55 foschia Foschia 16 7 55 1028 3 SE 7.4
Oggi h: 09:55 foschia Foschia 13 7 66 1028 3 N 5.5
Oggi h: 08:55 foschia Foschia 11 8 81 1028 3 O 7.4
Oggi h: 07:55 foschia Foschia 9 8 93 1027 4 O 11.1
Oggi h: 06:55 foschia Foschia 9 9 100 1027 5 O 7.4
Oggi h: 05:55 molto_nuvoloso Molto Nuvoloso 8 8 100 1027 6 O 7.4
Oggi h: 02:55 nuvoloso Nuvoloso 9 9 100 1027 7 O 9.3
Oggi h: 01:55 nuvoloso Nuvoloso 10 10 100 1027 7 O 7.4
Oggi h: 00:55 nuvoloso Nuvoloso 10 10 100 1027 7 O 9.3
Ieri h: 23:55 nuvoloso Nuvoloso 10 9 93 1027 7 O 7.4
Ieri h: 22:55 nuvoloso Nuvoloso 12 10 87 1027 7 N 3.7